sensor_id;sensor_type;location;lat;lon;timestamp;P1;durP1;ratioP1;P2;durP2;ratioP2
29574;SDS011;16507;51.046;6.406;2022-07-10T00:01:51;3.70;;;0.93;;
29574;SDS011;16507;51.046;6.406;2022-07-10T00:04:17;2.50;;;0.77;;
29574;SDS011;16507;51.046;6.406;2022-07-10T00:06:44;1.70;;;1.10;;
29574;SDS011;16507;51.046;6.406;2022-07-10T00:09:12;1.83;;;0.80;;
29574;SDS011;16507;51.046;6.406;2022-07-10T00:11:40;2.92;;;1.20;;
29574;SDS011;16507;51.046;6.406;2022-07-10T00:14:05;4.57;;;1.23;;
29574;SDS011;16507;51.046;6.406;2022-07-10T00:16:31;3.15;;;0.82;;
29574;SDS011;16507;51.046;6.406;2022-07-10T00:18:57;3.13;;;1.10;;
29574;SDS011;16507;51.046;6.406;2022-07-10T00:21:23;5.05;;;1.23;;
29574;SDS011;16507;51.046;6.406;2022-07-10T00:23:48;8.15;;;1.20;;
29574;SDS011;16507;51.046;6.406;2022-07-10T00:26:14;5.63;;;0.93;;
29574;SDS011;16507;51.046;6.406;2022-07-10T00:28:40;6.45;;;1.67;;
29574;SDS011;16507;51.046;6.406;2022-07-10T00:31:05;4.28;;;1.00;;
29574;SDS011;16507;51.046;6.406;2022-07-10T00:33:31;6.93;;;1.20;;
29574;SDS011;16507;51.046;6.406;2022-07-10T00:35:57;6.65;;;1.17;;
29574;SDS011;16507;51.046;6.406;2022-07-10T00:38:23;2.67;;;1.00;;
29574;SDS011;16507;51.046;6.406;2022-07-10T00:40:49;4.22;;;1.55;;
29574;SDS011;16507;51.046;6.406;2022-07-10T00:43:15;3.25;;;1.25;;
29574;SDS011;16507;51.046;6.406;2022-07-10T00:45:41;4.15;;;1.10;;
29574;SDS011;16507;51.046;6.406;2022-07-10T00:48:06;4.10;;;1.30;;
29574;SDS011;16507;51.046;6.406;2022-07-10T00:50:36;3.60;;;1.00;;
29574;SDS011;16507;51.046;6.406;2022-07-10T00:53:03;3.60;;;1.55;;
29574;SDS011;16507;51.046;6.406;2022-07-10T00:55:29;3.50;;;1.17;;
29574;SDS011;16507;51.046;6.406;2022-07-10T00:57:57;3.95;;;1.10;;
29574;SDS011;16507;51.046;6.406;2022-07-10T01:00:23;3.78;;;1.30;;
29574;SDS011;16507;51.046;6.406;2022-07-10T01:02:50;4.18;;;1.30;;
29574;SDS011;16507;51.046;6.406;2022-07-10T01:05:17;3.60;;;1.10;;
29574;SDS011;16507;51.046;6.406;2022-07-10T01:07:42;3.50;;;1.35;;
29574;SDS011;16507;51.046;6.406;2022-07-10T01:10:08;6.28;;;1.15;;
29574;SDS011;16507;51.046;6.406;2022-07-10T01:12:35;4.88;;;1.25;;
29574;SDS011;16507;51.046;6.406;2022-07-10T01:15:01;3.40;;;1.30;;
29574;SDS011;16507;51.046;6.406;2022-07-10T01:17:27;1.92;;;0.90;;
29574;SDS011;16507;51.046;6.406;2022-07-10T01:19:54;3.25;;;1.20;;
29574;SDS011;16507;51.046;6.406;2022-07-10T01:22:20;3.50;;;1.30;;
29574;SDS011;16507;51.046;6.406;2022-07-10T01:24:46;2.35;;;1.38;;
29574;SDS011;16507;51.046;6.406;2022-07-10T01:27:12;3.65;;;1.30;;
29574;SDS011;16507;51.046;6.406;2022-07-10T01:29:38;2.28;;;1.08;;
29574;SDS011;16507;51.046;6.406;2022-07-10T01:32:04;1.80;;;1.10;;
29574;SDS011;16507;51.046;6.406;2022-07-10T01:34:30;1.60;;;0.98;;
29574;SDS011;16507;51.046;6.406;2022-07-10T01:36:56;5.00;;;1.20;;
29574;SDS011;16507;51.046;6.406;2022-07-10T01:39:21;3.65;;;1.23;;
29574;SDS011;16507;51.046;6.406;2022-07-10T01:41:47;1.88;;;0.95;;
29574;SDS011;16507;51.046;6.406;2022-07-10T01:44:12;4.93;;;1.20;;
29574;SDS011;16507;51.046;6.406;2022-07-10T01:46:47;2.70;;;0.95;;
29574;SDS011;16507;51.046;6.406;2022-07-10T01:49:16;6.00;;;1.40;;
29574;SDS011;16507;51.046;6.406;2022-07-10T01:51:42;9.35;;;1.20;;
29574;SDS011;16507;51.046;6.406;2022-07-10T01:54:08;5.28;;;1.33;;
29574;SDS011;16507;51.046;6.406;2022-07-10T01:56:33;2.35;;;1.10;;
29574;SDS011;16507;51.046;6.406;2022-07-10T01:59:00;5.40;;;1.08;;
29574;SDS011;16507;51.046;6.406;2022-07-10T02:01:28;4.88;;;1.40;;
29574;SDS011;16507;51.046;6.406;2022-07-10T02:03:53;2.45;;;1.05;;
29574;SDS011;16507;51.046;6.406;2022-07-10T02:06:37;5.82;;;1.35;;
29574;SDS011;16507;51.046;6.406;2022-07-10T02:09:03;7.50;;;1.40;;
29574;SDS011;16507;51.046;6.406;2022-07-10T02:11:28;3.45;;;1.20;;
29574;SDS011;16507;51.046;6.406;2022-07-10T02:13:54;2.35;;;0.88;;
29574;SDS011;16507;51.046;6.406;2022-07-10T02:16:20;4.60;;;1.48;;
29574;SDS011;16507;51.046;6.406;2022-07-10T02:18:45;4.35;;;1.30;;
29574;SDS011;16507;51.046;6.406;2022-07-10T02:21:11;6.35;;;1.13;;
29574;SDS011;16507;51.046;6.406;2022-07-10T02:23:37;6.50;;;1.20;;
29574;SDS011;16507;51.046;6.406;2022-07-10T02:26:05;4.65;;;1.00;;
29574;SDS011;16507;51.046;6.406;2022-07-10T02:28:31;3.60;;;1.10;;
29574;SDS011;16507;51.046;6.406;2022-07-10T02:30:57;6.90;;;1.35;;
29574;SDS011;16507;51.046;6.406;2022-07-10T02:33:23;2.92;;;1.13;;
29574;SDS011;16507;51.046;6.406;2022-07-10T02:35:49;1.38;;;0.70;;
29574;SDS011;16507;51.046;6.406;2022-07-10T02:38:16;6.43;;;1.55;;
29574;SDS011;16507;51.046;6.406;2022-07-10T02:40:42;2.25;;;1.05;;
29574;SDS011;16507;51.046;6.406;2022-07-10T02:43:07;2.92;;;0.90;;
29574;SDS011;16507;51.046;6.406;2022-07-10T02:45:33;1.83;;;1.00;;
29574;SDS011;16507;51.046;6.406;2022-07-10T02:47:59;2.22;;;1.00;;
29574;SDS011;16507;51.046;6.406;2022-07-10T02:50:24;5.32;;;1.33;;
29574;SDS011;16507;51.046;6.406;2022-07-10T02:52:50;6.88;;;1.13;;
29574;SDS011;16507;51.046;6.406;2022-07-10T02:55:15;4.32;;;1.30;;
29574;SDS011;16507;51.046;6.406;2022-07-10T02:57:41;3.47;;;1.42;;
29574;SDS011;16507;51.046;6.406;2022-07-10T03:00:07;5.80;;;1.40;;
29574;SDS011;16507;51.046;6.406;2022-07-10T03:02:33;5.30;;;1.40;;
29574;SDS011;16507;51.046;6.406;2022-07-10T03:04:59;1.98;;;1.10;;
29574;SDS011;16507;51.046;6.406;2022-07-10T03:07:24;9.05;;;1.38;;
29574;SDS011;16507;51.046;6.406;2022-07-10T03:09:50;5.13;;;1.23;;
29574;SDS011;16507;51.046;6.406;2022-07-10T03:12:15;2.75;;;1.00;;
29574;SDS011;16507;51.046;6.406;2022-07-10T03:14:47;1.83;;;0.98;;
29574;SDS011;16507;51.046;6.406;2022-07-10T03:17:13;3.10;;;1.30;;
29574;SDS011;16507;51.046;6.406;2022-07-10T03:19:38;5.80;;;1.48;;
29574;SDS011;16507;51.046;6.406;2022-07-10T03:22:04;4.38;;;1.00;;
29574;SDS011;16507;51.046;6.406;2022-07-10T03:24:30;4.50;;;1.70;;
29574;SDS011;16507;51.046;6.406;2022-07-10T03:26:55;5.90;;;1.30;;
29574;SDS011;16507;51.046;6.406;2022-07-10T03:29:21;4.65;;;1.20;;
29574;SDS011;16507;51.046;6.406;2022-07-10T03:31:46;8.13;;;1.55;;
29574;SDS011;16507;51.046;6.406;2022-07-10T03:34:12;4.45;;;1.27;;
29574;SDS011;16507;51.046;6.406;2022-07-10T03:36:38;2.88;;;1.42;;
29574;SDS011;16507;51.046;6.406;2022-07-10T03:39:04;2.65;;;1.60;;
29574;SDS011;16507;51.046;6.406;2022-07-10T03:41:30;5.72;;;1.73;;
29574;SDS011;16507;51.046;6.406;2022-07-10T03:43:55;3.97;;;1.63;;
29574;SDS011;16507;51.046;6.406;2022-07-10T03:46:21;2.50;;;1.55;;
29574;SDS011;16507;51.046;6.406;2022-07-10T03:48:46;4.47;;;1.63;;
29574;SDS011;16507;51.046;6.406;2022-07-10T03:51:12;3.35;;;1.40;;
29574;SDS011;16507;51.046;6.406;2022-07-10T03:53:38;5.88;;;1.20;;
29574;SDS011;16507;51.046;6.406;2022-07-10T03:56:03;5.07;;;1.60;;
29574;SDS011;16507;51.046;6.406;2022-07-10T03:58:29;4.72;;;2.25;;
29574;SDS011;16507;51.046;6.406;2022-07-10T04:00:55;5.03;;;1.65;;
29574;SDS011;16507;51.046;6.406;2022-07-10T04:03:21;6.50;;;1.40;;
29574;SDS011;16507;51.046;6.406;2022-07-10T04:05:46;6.88;;;1.58;;
29574;SDS011;16507;51.046;6.406;2022-07-10T04:08:12;8.68;;;2.05;;
29574;SDS011;16507;51.046;6.406;2022-07-10T04:10:38;4.18;;;1.63;;
29574;SDS011;16507;51.046;6.406;2022-07-10T04:13:03;2.75;;;1.20;;
29574;SDS011;16507;51.046;6.406;2022-07-10T04:15:29;3.88;;;1.33;;
29574;SDS011;16507;51.046;6.406;2022-07-10T04:17:55;4.97;;;1.50;;
29574;SDS011;16507;51.046;6.406;2022-07-10T04:20:20;2.20;;;1.27;;
29574;SDS011;16507;51.046;6.406;2022-07-10T04:22:46;7.15;;;1.48;;
29574;SDS011;16507;51.046;6.406;2022-07-10T04:25:15;4.32;;;1.55;;
29574;SDS011;16507;51.046;6.406;2022-07-10T04:27:41;4.88;;;1.40;;
29574;SDS011;16507;51.046;6.406;2022-07-10T04:30:07;1.90;;;1.30;;
29574;SDS011;16507;51.046;6.406;2022-07-10T04:32:33;2.97;;;1.15;;
29574;SDS011;16507;51.046;6.406;2022-07-10T04:34:59;5.32;;;1.77;;
29574;SDS011;16507;51.046;6.406;2022-07-10T04:37:26;7.03;;;2.17;;
29574;SDS011;16507;51.046;6.406;2022-07-10T04:39:51;7.22;;;3.13;;
29574;SDS011;16507;51.046;6.406;2022-07-10T04:42:17;10.57;;;3.15;;
29574;SDS011;16507;51.046;6.406;2022-07-10T04:44:42;10.02;;;2.63;;
29574;SDS011;16507;51.046;6.406;2022-07-10T04:47:08;11.13;;;2.38;;
29574;SDS011;16507;51.046;6.406;2022-07-10T04:49:34;7.55;;;1.77;;
29574;SDS011;16507;51.046;6.406;2022-07-10T04:52:00;5.15;;;1.85;;
29574;SDS011;16507;51.046;6.406;2022-07-10T04:54:25;8.52;;;1.55;;
29574;SDS011;16507;51.046;6.406;2022-07-10T04:56:52;6.25;;;2.45;;
29574;SDS011;16507;51.046;6.406;2022-07-10T04:59:17;6.57;;;3.00;;
29574;SDS011;16507;51.046;6.406;2022-07-10T05:01:43;8.00;;;4.10;;
29574;SDS011;16507;51.046;6.406;2022-07-10T05:04:09;14.73;;;4.55;;
29574;SDS011;16507;51.046;6.406;2022-07-10T05:06:35;9.02;;;4.68;;
29574;SDS011;16507;51.046;6.406;2022-07-10T05:09:01;8.55;;;3.78;;
29574;SDS011;16507;51.046;6.406;2022-07-10T05:11:27;3.13;;;2.80;;
29574;SDS011;16507;51.046;6.406;2022-07-10T05:13:53;7.55;;;3.22;;
29574;SDS011;16507;51.046;6.406;2022-07-10T05:16:19;7.80;;;3.33;;
29574;SDS011;16507;51.046;6.406;2022-07-10T05:18:44;4.70;;;2.45;;
29574;SDS011;16507;51.046;6.406;2022-07-10T05:21:10;9.23;;;2.65;;
29574;SDS011;16507;51.046;6.406;2022-07-10T05:23:39;7.45;;;3.03;;
29574;SDS011;16507;51.046;6.406;2022-07-10T05:26:05;7.13;;;2.35;;
29574;SDS011;16507;51.046;6.406;2022-07-10T05:28:31;8.60;;;2.45;;
29574;SDS011;16507;51.046;6.406;2022-07-10T05:30:57;4.50;;;2.17;;
29574;SDS011;16507;51.046;6.406;2022-07-10T05:33:23;9.32;;;2.08;;
29574;SDS011;16507;51.046;6.406;2022-07-10T05:35:48;7.85;;;2.53;;
29574;SDS011;16507;51.046;6.406;2022-07-10T05:38:14;3.25;;;2.20;;
29574;SDS011;16507;51.046;6.406;2022-07-10T05:40:42;3.05;;;2.55;;
29574;SDS011;16507;51.046;6.406;2022-07-10T05:43:08;11.65;;;3.40;;
29574;SDS011;16507;51.046;6.406;2022-07-10T05:45:35;4.07;;;3.15;;
29574;SDS011;16507;51.046;6.406;2022-07-10T05:48:00;8.50;;;2.15;;
29574;SDS011;16507;51.046;6.406;2022-07-10T05:50:26;7.88;;;2.38;;
29574;SDS011;16507;51.046;6.406;2022-07-10T05:52:51;7.15;;;2.40;;
29574;SDS011;16507;51.046;6.406;2022-07-10T05:55:17;1.83;;;1.27;;
29574;SDS011;16507;51.046;6.406;2022-07-10T05:57:43;3.92;;;1.40;;
29574;SDS011;16507;51.046;6.406;2022-07-10T06:00:08;5.75;;;1.48;;
29574;SDS011;16507;51.046;6.406;2022-07-10T06:02:34;6.05;;;1.30;;
29574;SDS011;16507;51.046;6.406;2022-07-10T06:05:00;4.80;;;1.20;;
29574;SDS011;16507;51.046;6.406;2022-07-10T06:07:26;7.25;;;2.00;;
29574;SDS011;16507;51.046;6.406;2022-07-10T06:09:52;6.95;;;1.30;;
29574;SDS011;16507;51.046;6.406;2022-07-10T06:12:18;3.70;;;1.00;;
29574;SDS011;16507;51.046;6.406;2022-07-10T06:14:47;7.82;;;2.00;;
29574;SDS011;16507;51.046;6.406;2022-07-10T06:17:13;10.05;;;1.30;;
29574;SDS011;16507;51.046;6.406;2022-07-10T06:19:38;7.65;;;1.45;;
29574;SDS011;16507;51.046;6.406;2022-07-10T06:22:04;4.78;;;1.20;;
29574;SDS011;16507;51.046;6.406;2022-07-10T06:24:48;6.22;;;1.35;;
29574;SDS011;16507;51.046;6.406;2022-07-10T06:27:14;3.22;;;1.00;;
29574;SDS011;16507;51.046;6.406;2022-07-10T06:29:40;4.63;;;1.13;;
29574;SDS011;16507;51.046;6.406;2022-07-10T06:32:05;3.13;;;1.20;;
29574;SDS011;16507;51.046;6.406;2022-07-10T06:34:31;4.80;;;1.00;;
29574;SDS011;16507;51.046;6.406;2022-07-10T06:36:57;4.15;;;1.38;;
29574;SDS011;16507;51.046;6.406;2022-07-10T06:39:23;2.70;;;0.90;;
29574;SDS011;16507;51.046;6.406;2022-07-10T06:41:48;4.88;;;1.17;;
29574;SDS011;16507;51.046;6.406;2022-07-10T06:44:14;2.67;;;1.00;;
29574;SDS011;16507;51.046;6.406;2022-07-10T06:46:40;4.55;;;1.30;;
29574;SDS011;16507;51.046;6.406;2022-07-10T06:49:06;3.30;;;1.00;;
29574;SDS011;16507;51.046;6.406;2022-07-10T06:51:31;7.72;;;1.52;;
29574;SDS011;16507;51.046;6.406;2022-07-10T06:53:57;2.70;;;1.10;;
29574;SDS011;16507;51.046;6.406;2022-07-10T06:56:23;4.20;;;1.63;;
29574;SDS011;16507;51.046;6.406;2022-07-10T06:58:52;10.25;;;1.23;;
29574;SDS011;16507;51.046;6.406;2022-07-10T07:01:17;2.67;;;1.27;;
29574;SDS011;16507;51.046;6.406;2022-07-10T07:03:43;3.15;;;1.02;;
29574;SDS011;16507;51.046;6.406;2022-07-10T07:06:09;7.22;;;1.55;;
29574;SDS011;16507;51.046;6.406;2022-07-10T07:08:35;4.43;;;1.15;;
29574;SDS011;16507;51.046;6.406;2022-07-10T07:11:01;6.82;;;1.20;;
29574;SDS011;16507;51.046;6.406;2022-07-10T07:13:27;5.13;;;1.30;;
29574;SDS011;16507;51.046;6.406;2022-07-10T07:15:53;5.18;;;1.35;;
29574;SDS011;16507;51.046;6.406;2022-07-10T07:18:25;5.40;;;1.85;;
29574;SDS011;16507;51.046;6.406;2022-07-10T07:21:02;6.97;;;2.10;;
29574;SDS011;16507;51.046;6.406;2022-07-10T07:23:46;7.53;;;1.90;;
29574;SDS011;16507;51.046;6.406;2022-07-10T07:26:12;11.07;;;2.35;;
29574;SDS011;16507;51.046;6.406;2022-07-10T07:28:38;3.63;;;1.27;;
29574;SDS011;16507;51.046;6.406;2022-07-10T07:31:03;3.85;;;1.40;;
29574;SDS011;16507;51.046;6.406;2022-07-10T07:33:29;4.80;;;0.98;;
29574;SDS011;16507;51.046;6.406;2022-07-10T07:35:55;4.43;;;1.10;;
29574;SDS011;16507;51.046;6.406;2022-07-10T07:38:21;2.55;;;1.00;;
29574;SDS011;16507;51.046;6.406;2022-07-10T07:40:47;3.80;;;1.05;;
29574;SDS011;16507;51.046;6.406;2022-07-10T07:43:12;6.55;;;1.35;;
29574;SDS011;16507;51.046;6.406;2022-07-10T07:45:38;4.07;;;0.90;;
29574;SDS011;16507;51.046;6.406;2022-07-10T07:48:04;7.22;;;1.40;;
29574;SDS011;16507;51.046;6.406;2022-07-10T07:50:30;4.35;;;1.10;;
29574;SDS011;16507;51.046;6.406;2022-07-10T07:52:57;4.72;;;0.93;;
29574;SDS011;16507;51.046;6.406;2022-07-10T07:55:24;3.40;;;1.00;;
29574;SDS011;16507;51.046;6.406;2022-07-10T07:57:51;6.85;;;1.20;;
29574;SDS011;16507;51.046;6.406;2022-07-10T08:00:18;5.35;;;1.13;;
29574;SDS011;16507;51.046;6.406;2022-07-10T08:02:47;2.10;;;0.95;;
29574;SDS011;16507;51.046;6.406;2022-07-10T08:05:13;2.63;;;1.05;;
29574;SDS011;16507;51.046;6.406;2022-07-10T08:07:43;3.35;;;0.90;;
29574;SDS011;16507;51.046;6.406;2022-07-10T08:10:12;8.13;;;0.95;;
29574;SDS011;16507;51.046;6.406;2022-07-10T08:12:39;3.22;;;1.05;;
29574;SDS011;16507;51.046;6.406;2022-07-10T08:15:09;5.93;;;1.02;;
29574;SDS011;16507;51.046;6.406;2022-07-10T08:17:36;3.00;;;0.93;;
29574;SDS011;16507;51.046;6.406;2022-07-10T08:20:03;3.53;;;1.02;;
29574;SDS011;16507;51.046;6.406;2022-07-10T08:22:30;3.38;;;0.70;;
29574;SDS011;16507;51.046;6.406;2022-07-10T08:24:57;7.07;;;0.80;;
29574;SDS011;16507;51.046;6.406;2022-07-10T08:27:23;2.15;;;0.63;;
29574;SDS011;16507;51.046;6.406;2022-07-10T08:29:51;4.53;;;0.90;;
29574;SDS011;16507;51.046;6.406;2022-07-10T08:32:16;4.20;;;1.10;;
29574;SDS011;16507;51.046;6.406;2022-07-10T08:34:42;4.40;;;1.00;;
29574;SDS011;16507;51.046;6.406;2022-07-10T08:37:08;2.35;;;0.80;;
29574;SDS011;16507;51.046;6.406;2022-07-10T08:39:34;2.20;;;0.80;;
29574;SDS011;16507;51.046;6.406;2022-07-10T08:42:00;2.92;;;0.80;;
29574;SDS011;16507;51.046;6.406;2022-07-10T08:44:26;2.63;;;0.60;;
29574;SDS011;16507;51.046;6.406;2022-07-10T08:46:53;2.60;;;0.70;;
29574;SDS011;16507;51.046;6.406;2022-07-10T08:49:20;3.42;;;0.80;;
29574;SDS011;16507;51.046;6.406;2022-07-10T08:54:14;2.72;;;0.93;;
29574;SDS011;16507;51.046;6.406;2022-07-10T08:56:40;1.88;;;0.70;;
29574;SDS011;16507;51.046;6.406;2022-07-10T08:59:06;4.00;;;0.95;;
29574;SDS011;16507;51.046;6.406;2022-07-10T09:01:33;4.00;;;0.88;;
29574;SDS011;16507;51.046;6.406;2022-07-10T09:03:58;8.50;;;1.05;;
29574;SDS011;16507;51.046;6.406;2022-07-10T09:06:26;2.75;;;0.90;;
29574;SDS011;16507;51.046;6.406;2022-07-10T09:11:27;3.83;;;1.10;;
29574;SDS011;16507;51.046;6.406;2022-07-10T09:13:59;3.33;;;0.88;;
29574;SDS011;16507;51.046;6.406;2022-07-10T09:16:32;5.03;;;0.95;;
29574;SDS011;16507;51.046;6.406;2022-07-10T09:19:19;8.10;;;1.10;;
29574;SDS011;16507;51.046;6.406;2022-07-10T09:21:49;4.47;;;0.90;;
29574;SDS011;16507;51.046;6.406;2022-07-10T09:27:12;5.82;;;1.15;;
29574;SDS011;16507;51.046;6.406;2022-07-10T09:29:50;5.90;;;0.85;;
29574;SDS011;16507;51.046;6.406;2022-07-10T09:32:24;9.60;;;1.25;;
29574;SDS011;16507;51.046;6.406;2022-07-10T09:34:51;4.72;;;0.93;;
29574;SDS011;16507;51.046;6.406;2022-07-10T09:37:40;2.45;;;1.00;;
29574;SDS011;16507;51.046;6.406;2022-07-10T09:40:07;7.45;;;1.10;;
29574;SDS011;16507;51.046;6.406;2022-07-10T09:47:35;3.58;;;1.20;;
29574;SDS011;16507;51.046;6.406;2022-07-10T09:50:01;6.32;;;1.65;;
29574;SDS011;16507;51.046;6.406;2022-07-10T09:52:28;4.57;;;1.10;;
29574;SDS011;16507;51.046;6.406;2022-07-10T09:54:54;2.08;;;1.00;;
29574;SDS011;16507;51.046;6.406;2022-07-10T09:57:22;3.92;;;1.08;;
29574;SDS011;16507;51.046;6.406;2022-07-10T09:59:53;3.65;;;1.38;;
29574;SDS011;16507;51.046;6.406;2022-07-10T10:02:20;8.88;;;1.77;;
29574;SDS011;16507;51.046;6.406;2022-07-10T10:04:47;5.78;;;1.30;;
29574;SDS011;16507;51.046;6.406;2022-07-10T10:07:14;5.47;;;1.70;;
29574;SDS011;16507;51.046;6.406;2022-07-10T10:09:45;5.00;;;1.45;;
29574;SDS011;16507;51.046;6.406;2022-07-10T10:12:31;2.55;;;1.10;;
29574;SDS011;16507;51.046;6.406;2022-07-10T10:15:13;3.47;;;1.00;;
29574;SDS011;16507;51.046;6.406;2022-07-10T10:17:40;3.13;;;0.85;;
29574;SDS011;16507;51.046;6.406;2022-07-10T10:20:07;2.20;;;1.15;;
29574;SDS011;16507;51.046;6.406;2022-07-10T10:22:52;1.58;;;0.75;;
29574;SDS011;16507;51.046;6.406;2022-07-10T10:25:20;2.67;;;0.90;;
29574;SDS011;16507;51.046;6.406;2022-07-10T10:27:48;5.60;;;1.45;;
29574;SDS011;16507;51.046;6.406;2022-07-10T10:30:15;1.33;;;1.10;;
29574;SDS011;16507;51.046;6.406;2022-07-10T10:32:42;3.75;;;1.00;;
29574;SDS011;16507;51.046;6.406;2022-07-10T10:35:08;7.22;;;1.00;;
29574;SDS011;16507;51.046;6.406;2022-07-10T10:37:40;3.75;;;1.15;;
29574;SDS011;16507;51.046;6.406;2022-07-10T10:40:09;2.38;;;0.98;;
29574;SDS011;16507;51.046;6.406;2022-07-10T10:42:36;4.43;;;1.20;;
29574;SDS011;16507;51.046;6.406;2022-07-10T10:50:36;9.15;;;1.67;;
29574;SDS011;16507;51.046;6.406;2022-07-10T10:53:02;2.85;;;1.08;;
29574;SDS011;16507;51.046;6.406;2022-07-10T10:55:28;3.45;;;1.17;;
29574;SDS011;16507;51.046;6.406;2022-07-10T10:57:54;2.83;;;0.93;;
29574;SDS011;16507;51.046;6.406;2022-07-10T11:00:39;3.45;;;1.15;;
29574;SDS011;16507;51.046;6.406;2022-07-10T11:03:14;3.25;;;1.10;;
29574;SDS011;16507;51.046;6.406;2022-07-10T11:05:45;5.80;;;1.02;;
29574;SDS011;16507;51.046;6.406;2022-07-10T11:08:12;2.42;;;0.80;;
29574;SDS011;16507;51.046;6.406;2022-07-10T11:10:44;3.05;;;0.98;;
29574;SDS011;16507;51.046;6.406;2022-07-10T11:15:41;1.65;;;0.70;;
29574;SDS011;16507;51.046;6.406;2022-07-10T11:31:18;2.00;;;0.93;;
29574;SDS011;16507;51.046;6.406;2022-07-10T11:33:46;3.83;;;1.10;;
29574;SDS011;16507;51.046;6.406;2022-07-10T11:36:20;2.92;;;1.10;;
29574;SDS011;16507;51.046;6.406;2022-07-10T11:39:02;1.92;;;0.80;;
29574;SDS011;16507;51.046;6.406;2022-07-10T11:41:31;3.63;;;1.00;;
29574;SDS011;16507;51.046;6.406;2022-07-10T11:43:58;8.93;;;0.85;;
29574;SDS011;16507;51.046;6.406;2022-07-10T11:46:29;2.85;;;1.00;;
29574;SDS011;16507;51.046;6.406;2022-07-10T11:48:57;4.78;;;1.23;;
29574;SDS011;16507;51.046;6.406;2022-07-10T11:51:30;4.05;;;1.30;;
29574;SDS011;16507;51.046;6.406;2022-07-10T11:54:05;3.13;;;1.55;;
29574;SDS011;16507;51.046;6.406;2022-07-10T11:56:47;1.55;;;1.08;;
29574;SDS011;16507;51.046;6.406;2022-07-10T11:59:23;4.55;;;1.10;;
29574;SDS011;16507;51.046;6.406;2022-07-10T12:01:51;2.47;;;1.08;;
29574;SDS011;16507;51.046;6.406;2022-07-10T12:04:18;2.17;;;1.00;;
29574;SDS011;16507;51.046;6.406;2022-07-10T12:06:54;2.03;;;1.10;;
29574;SDS011;16507;51.046;6.406;2022-07-10T12:09:21;7.88;;;1.20;;
29574;SDS011;16507;51.046;6.406;2022-07-10T12:11:57;2.40;;;0.90;;
29574;SDS011;16507;51.046;6.406;2022-07-10T12:14:31;2.70;;;1.00;;
29574;SDS011;16507;51.046;6.406;2022-07-10T12:16:57;2.78;;;1.02;;
29574;SDS011;16507;51.046;6.406;2022-07-10T12:19:29;4.30;;;1.45;;
29574;SDS011;16507;51.046;6.406;2022-07-10T12:22:02;5.03;;;1.15;;
29574;SDS011;16507;51.046;6.406;2022-07-10T12:24:30;3.90;;;1.23;;
29574;SDS011;16507;51.046;6.406;2022-07-10T12:26:56;4.68;;;1.35;;
29574;SDS011;16507;51.046;6.406;2022-07-10T12:29:25;5.30;;;1.80;;
29574;SDS011;16507;51.046;6.406;2022-07-10T12:31:55;6.57;;;1.40;;
29574;SDS011;16507;51.046;6.406;2022-07-10T12:34:36;18.65;;;1.80;;
29574;SDS011;16507;51.046;6.406;2022-07-10T12:37:07;3.90;;;1.75;;
29574;SDS011;16507;51.046;6.406;2022-07-10T12:39:35;10.80;;;1.80;;
29574;SDS011;16507;51.046;6.406;2022-07-10T12:42:03;3.58;;;1.45;;
29574;SDS011;16507;51.046;6.406;2022-07-10T12:44:43;6.03;;;1.40;;
29574;SDS011;16507;51.046;6.406;2022-07-10T12:47:17;5.50;;;1.50;;
29574;SDS011;16507;51.046;6.406;2022-07-10T12:50:05;1.70;;;1.52;;
29574;SDS011;16507;51.046;6.406;2022-07-10T12:52:35;3.00;;;1.45;;
29574;SDS011;16507;51.046;6.406;2022-07-10T12:55:16;2.70;;;1.30;;
29574;SDS011;16507;51.046;6.406;2022-07-10T13:00:28;4.18;;;1.10;;
29574;SDS011;16507;51.046;6.406;2022-07-10T13:03:05;4.90;;;1.20;;
29574;SDS011;16507;51.046;6.406;2022-07-10T13:05:39;4.10;;;1.20;;
29574;SDS011;16507;51.046;6.406;2022-07-10T13:10:34;2.85;;;1.20;;
29574;SDS011;16507;51.046;6.406;2022-07-10T13:13:01;2.58;;;1.15;;
29574;SDS011;16507;51.046;6.406;2022-07-10T13:15:30;5.13;;;1.60;;
29574;SDS011;16507;51.046;6.406;2022-07-10T13:17:56;4.95;;;1.50;;
29574;SDS011;16507;51.046;6.406;2022-07-10T13:20:22;4.50;;;1.10;;
29574;SDS011;16507;51.046;6.406;2022-07-10T13:22:48;2.03;;;1.35;;
29574;SDS011;16507;51.046;6.406;2022-07-10T13:25:14;3.05;;;1.08;;
29574;SDS011;16507;51.046;6.406;2022-07-10T13:27:40;3.42;;;1.17;;
29574;SDS011;16507;51.046;6.406;2022-07-10T13:30:07;2.40;;;1.02;;
29574;SDS011;16507;51.046;6.406;2022-07-10T13:32:33;1.40;;;1.05;;
29574;SDS011;16507;51.046;6.406;2022-07-10T13:34:59;2.80;;;0.90;;
29574;SDS011;16507;51.046;6.406;2022-07-10T13:37:25;5.93;;;0.80;;
29574;SDS011;16507;51.046;6.406;2022-07-10T13:39:51;6.28;;;1.20;;
29574;SDS011;16507;51.046;6.406;2022-07-10T13:42:16;2.53;;;0.90;;
29574;SDS011;16507;51.046;6.406;2022-07-10T13:44:42;2.60;;;0.90;;
29574;SDS011;16507;51.046;6.406;2022-07-10T13:47:07;1.80;;;1.15;;
29574;SDS011;16507;51.046;6.406;2022-07-10T13:49:33;3.20;;;1.10;;
29574;SDS011;16507;51.046;6.406;2022-07-10T13:51:59;2.92;;;0.90;;
29574;SDS011;16507;51.046;6.406;2022-07-10T13:54:25;3.25;;;1.08;;
29574;SDS011;16507;51.046;6.406;2022-07-10T13:56:51;2.53;;;1.17;;
29574;SDS011;16507;51.046;6.406;2022-07-10T13:59:16;1.23;;;0.82;;
29574;SDS011;16507;51.046;6.406;2022-07-10T14:01:42;2.33;;;0.90;;
29574;SDS011;16507;51.046;6.406;2022-07-10T14:04:08;4.18;;;1.10;;
29574;SDS011;16507;51.046;6.406;2022-07-10T14:06:36;4.43;;;1.20;;
29574;SDS011;16507;51.046;6.406;2022-07-10T14:09:01;2.47;;;0.80;;
29574;SDS011;16507;51.046;6.406;2022-07-10T14:11:27;2.70;;;0.90;;
29574;SDS011;16507;51.046;6.406;2022-07-10T14:13:53;1.75;;;0.70;;
29574;SDS011;16507;51.046;6.406;2022-07-10T14:16:19;2.03;;;0.63;;
29574;SDS011;16507;51.046;6.406;2022-07-10T14:18:45;1.27;;;0.93;;
29574;SDS011;16507;51.046;6.406;2022-07-10T14:21:11;3.22;;;1.00;;
29574;SDS011;16507;51.046;6.406;2022-07-10T14:23:39;3.25;;;1.25;;
29574;SDS011;16507;51.046;6.406;2022-07-10T14:26:14;2.28;;;0.80;;
29574;SDS011;16507;51.046;6.406;2022-07-10T14:28:39;1.38;;;0.75;;
29574;SDS011;16507;51.046;6.406;2022-07-10T14:31:06;3.75;;;1.33;;
29574;SDS011;16507;51.046;6.406;2022-07-10T14:33:32;1.00;;;0.82;;
29574;SDS011;16507;51.046;6.406;2022-07-10T14:35:59;2.22;;;0.90;;
29574;SDS011;16507;51.046;6.406;2022-07-10T14:38:25;1.38;;;0.80;;
29574;SDS011;16507;51.046;6.406;2022-07-10T14:40:51;2.17;;;1.20;;
29574;SDS011;16507;51.046;6.406;2022-07-10T14:43:21;2.13;;;0.90;;
29574;SDS011;16507;51.046;6.406;2022-07-10T14:45:47;1.38;;;0.73;;
29574;SDS011;16507;51.046;6.406;2022-07-10T14:48:13;2.80;;;0.93;;
29574;SDS011;16507;51.046;6.406;2022-07-10T14:50:39;3.28;;;0.70;;
29574;SDS011;16507;51.046;6.406;2022-07-10T14:53:05;2.55;;;0.93;;
29574;SDS011;16507;51.046;6.406;2022-07-10T14:55:33;4.43;;;1.23;;
29574;SDS011;16507;51.046;6.406;2022-07-10T14:57:59;4.60;;;1.20;;
29574;SDS011;16507;51.046;6.406;2022-07-10T15:00:24;1.45;;;1.02;;
29574;SDS011;16507;51.046;6.406;2022-07-10T15:02:50;2.72;;;0.75;;
29574;SDS011;16507;51.046;6.406;2022-07-10T15:05:15;4.82;;;1.88;;
29574;SDS011;16507;51.046;6.406;2022-07-10T15:07:41;4.40;;;1.08;;
29574;SDS011;16507;51.046;6.406;2022-07-10T15:10:07;2.30;;;1.15;;
29574;SDS011;16507;51.046;6.406;2022-07-10T15:12:37;1.15;;;0.75;;
29574;SDS011;16507;51.046;6.406;2022-07-10T15:15:06;2.15;;;0.90;;
29574;SDS011;16507;51.046;6.406;2022-07-10T15:17:35;1.92;;;1.30;;
29574;SDS011;16507;51.046;6.406;2022-07-10T15:20:01;3.30;;;0.80;;
29574;SDS011;16507;51.046;6.406;2022-07-10T15:22:27;1.27;;;0.80;;
29574;SDS011;16507;51.046;6.406;2022-07-10T15:24:52;2.88;;;1.27;;
29574;SDS011;16507;51.046;6.406;2022-07-10T15:27:18;2.85;;;0.70;;
29574;SDS011;16507;51.046;6.406;2022-07-10T15:29:44;1.45;;;0.80;;